createdAt,value
2019-04-14T00:00:35.843Z,16.23
2019-04-14T00:03:23.751Z,16.40
2019-04-14T00:06:00.986Z,16.60
2019-04-14T00:08:34.813Z,18.47
2019-04-14T00:11:08.330Z,18.53
2019-04-14T00:13:41.670Z,16.03
2019-04-14T00:16:14.109Z,16.70
2019-04-14T00:18:47.007Z,16.33
2019-04-14T00:21:19.371Z,16.53
2019-04-14T00:23:54.365Z,17.10
2019-04-14T00:26:31.544Z,17.07
2019-04-14T00:29:04.485Z,16.67
2019-04-14T00:31:37.133Z,16.80
2019-04-14T00:34:35.410Z,17.17
2019-04-14T00:37:25.224Z,17.30
2019-04-14T00:40:00.500Z,17.20
2019-04-14T00:42:51.857Z,16.50
2019-04-14T00:45:52.524Z,18.37
2019-04-14T00:48:25.775Z,17.33
2019-04-14T00:50:58.235Z,18.23
2019-04-14T00:53:29.623Z,16.83
2019-04-14T00:56:06.203Z,18.07
2019-04-14T00:58:41.127Z,18.90
2019-04-14T01:01:13.358Z,17.40
2019-04-14T01:03:46.273Z,17.20
2019-04-14T01:06:18.519Z,18.07
2019-04-14T01:08:51.287Z,18.13
2019-04-14T01:11:22.942Z,16.60
2019-04-14T01:13:57.180Z,19.50
2019-04-14T01:16:30.426Z,18.70
2019-04-14T01:19:04.781Z,18.63
2019-04-14T01:21:37.097Z,19.33
2019-04-14T01:24:10.627Z,18.30
2019-04-14T01:26:44.217Z,17.93
2019-04-14T01:29:16.635Z,17.33
2019-04-14T01:31:53.630Z,18.43
2019-04-14T01:34:28.155Z,18.47
2019-04-14T01:37:00.818Z,18.03
2019-04-14T01:39:35.068Z,19.67
2019-04-14T01:42:07.111Z,19.20
2019-04-14T01:44:43.822Z,18.40
2019-04-14T01:47:18.166Z,18.30
2019-04-14T01:49:52.951Z,20.40
2019-04-14T01:52:46.206Z,19.23
2019-04-14T01:55:37.353Z,19.57
2019-04-14T01:58:22.869Z,18.77
2019-04-14T02:01:04.379Z,18.47
2019-04-14T02:03:37.298Z,17.30
2019-04-14T02:06:11.453Z,19.53
2019-04-14T02:08:45.743Z,20.73
2019-04-14T02:11:18.310Z,18.00
2019-04-14T02:13:50.962Z,19.83
2019-04-14T02:16:33.051Z,19.40
2019-04-14T02:18:58.670Z,19.87
2019-04-14T02:21:32.399Z,19.77
2019-04-14T02:24:04.966Z,19.17
2019-04-14T02:26:39.436Z,18.07
2019-04-14T02:29:12.716Z,19.60
2019-04-14T02:32:13.889Z,19.40
2019-04-14T02:40:01.273Z,20.13
2019-04-14T02:42:36.715Z,18.83
2019-04-14T02:45:10.526Z,21.27
2019-04-14T02:47:53.765Z,20.23
2019-04-14T02:50:12.198Z,20.90
2019-04-14T02:52:52.087Z,20.67
2019-04-14T02:55:23.615Z,20.03
2019-04-14T02:58:06.022Z,20.83
2019-04-14T03:03:20.028Z,20.67
2019-04-14T03:05:53.270Z,20.10
2019-04-14T03:08:26.335Z,18.90
2019-04-14T03:10:53.568Z,21.80
2019-04-14T03:13:43.498Z,20.50
2019-04-14T03:18:50.101Z,23.00
2019-04-14T03:22:04.862Z,23.10
2019-04-14T03:24:33.866Z,21.00
2019-04-14T03:27:40.353Z,22.77
2019-04-14T03:30:57.584Z,20.20
2019-04-14T03:38:18.307Z,21.90
2019-04-14T03:40:49.997Z,22.80
2019-04-14T03:51:10.585Z,22.40
2019-04-14T03:53:53.356Z,19.40
2019-04-14T03:56:27.208Z,19.53
2019-04-14T03:59:01.885Z,18.50
2019-04-14T04:01:37.165Z,18.40
2019-04-14T04:04:10.377Z,20.97
2019-04-14T04:06:44.374Z,21.97
2019-04-14T04:09:19.285Z,18.77
2019-04-14T04:11:52.241Z,22.37
2019-04-14T04:14:27.178Z,20.97
2019-04-14T04:17:10.170Z,27.60
2019-04-14T04:20:04.766Z,25.30
2019-04-14T04:23:09.671Z,22.50
2019-04-14T04:25:50.810Z,21.93
2019-04-14T04:28:40.647Z,21.40
2019-04-14T04:31:22.049Z,19.60
2019-04-14T04:34:27.290Z,22.00
2019-04-14T04:37:17.160Z,20.73
2019-04-14T04:39:53.914Z,23.07
2019-04-14T04:42:28.710Z,22.23
2019-04-14T04:45:01.799Z,21.40
2019-04-14T04:47:33.812Z,25.03
2019-04-14T04:50:06.553Z,24.70
2019-04-14T04:52:39.196Z,23.53
2019-04-14T04:55:13.374Z,22.43
2019-04-14T04:57:48.059Z,24.20
2019-04-14T05:00:22.198Z,22.43
2019-04-14T05:02:57.142Z,22.67
2019-04-14T05:06:13.325Z,21.23
2019-04-14T05:08:50.426Z,22.63
2019-04-14T05:11:53.545Z,21.80
2019-04-14T05:14:32.706Z,22.57
2019-04-14T05:17:06.426Z,22.97
2019-04-14T05:19:40.893Z,24.43
2019-04-14T05:22:16.646Z,26.10
2019-04-14T05:24:50.704Z,24.80
2019-04-14T05:27:23.151Z,23.63
2019-04-14T05:29:58.047Z,24.30
2019-04-14T05:32:30.761Z,23.47
2019-04-14T05:35:05.615Z,23.97
2019-04-14T05:37:39.975Z,27.57
2019-04-14T05:40:14.559Z,25.73
2019-04-14T05:42:58.075Z,24.70
2019-04-14T05:45:30.700Z,28.50
2019-04-14T05:48:03.338Z,25.50
2019-04-14T05:50:37.933Z,25.70
2019-04-14T05:53:11.058Z,23.10
2019-04-14T05:55:45.935Z,25.30
2019-04-14T05:58:18.595Z,23.50
2019-04-14T06:00:51.820Z,26.30
2019-04-14T06:03:25.693Z,24.13
2019-04-14T06:06:01.359Z,23.47
2019-04-14T06:08:32.647Z,24.20
2019-04-14T06:11:05.000Z,23.83
2019-04-14T06:13:36.828Z,25.03
2019-04-14T06:16:10.850Z,23.57
2019-04-14T06:18:42.586Z,33.77
2019-04-14T06:21:14.811Z,27.90
2019-04-14T06:23:47.887Z,27.37
2019-04-14T06:26:23.367Z,30.77
2019-04-14T06:28:55.170Z,22.50
2019-04-14T06:31:49.299Z,25.53
2019-04-14T06:34:27.462Z,22.10
2019-04-14T06:37:17.494Z,23.40
2019-04-14T06:39:50.488Z,20.97
2019-04-14T06:42:22.901Z,19.60
2019-04-14T06:44:55.881Z,20.60
2019-04-14T06:47:31.569Z,21.90
2019-04-14T06:50:02.849Z,20.67
2019-04-14T06:52:36.400Z,19.87
2019-04-14T06:55:10.720Z,19.10
2019-04-14T06:57:44.060Z,18.37
2019-04-14T07:00:16.962Z,17.47
2019-04-14T07:02:51.171Z,18.33
2019-04-14T07:05:24.652Z,17.93
2019-04-14T07:08:00.335Z,16.63
2019-04-14T07:10:31.979Z,14.23
2019-04-14T07:13:05.982Z,16.23
2019-04-14T07:15:39.104Z,14.50
2019-04-14T07:18:12.312Z,14.17
2019-04-14T07:20:43.982Z,16.20
2019-04-14T07:23:17.111Z,13.90
2019-04-14T07:25:50.801Z,13.43
2019-04-14T07:28:22.047Z,14.27
2019-04-14T07:31:12.679Z,12.90
2019-04-14T07:34:09.763Z,12.37
2019-04-14T07:37:01.653Z,12.50
2019-04-14T07:39:55.201Z,13.27
2019-04-14T07:42:41.637Z,12.30
2019-04-14T07:45:26.493Z,13.27
2019-04-14T07:48:10.481Z,13.23
2019-04-14T07:50:55.723Z,13.00
2019-04-14T07:53:49.929Z,12.77
2019-04-14T07:56:39.252Z,12.03
2019-04-14T07:59:22.832Z,12.47
2019-04-14T08:02:22.185Z,11.70
2019-04-14T08:05:18.181Z,12.27
2019-04-14T08:07:51.954Z,13.33
2019-04-14T08:10:24.805Z,12.00
2019-04-14T08:13:02.103Z,12.97
2019-04-14T08:15:34.271Z,11.83
2019-04-14T08:18:10.205Z,12.17
2019-04-14T08:20:42.305Z,13.33
2019-04-14T08:23:15.263Z,12.70
2019-04-14T08:25:49.676Z,11.80
2019-04-14T08:28:22.327Z,12.70
2019-04-14T08:30:56.278Z,14.00
2019-04-14T08:33:30.338Z,13.23
2019-04-14T08:36:04.241Z,19.60
2019-04-14T08:38:37.270Z,16.33
2019-04-14T08:41:09.606Z,15.53
2019-04-14T08:43:51.565Z,13.70
2019-04-14T08:46:49.239Z,13.10
2019-04-14T08:49:33.730Z,13.60
2019-04-14T08:52:24.197Z,13.50
2019-04-14T08:55:12.151Z,13.60
2019-04-14T08:58:09.350Z,15.90
2019-04-14T09:00:56.378Z,13.90
2019-04-14T09:03:54.062Z,14.37
2019-04-14T09:06:33.088Z,13.73
2019-04-14T09:09:44.411Z,13.60
2019-04-14T09:12:19.799Z,13.43
2019-04-14T09:14:57.142Z,11.67
2019-04-14T09:17:25.854Z,13.10
2019-04-14T09:19:59.987Z,14.27
2019-04-14T09:22:31.249Z,14.27
2019-04-14T09:25:03.740Z,14.17
2019-04-14T09:27:37.066Z,13.30
2019-04-14T09:30:12.673Z,15.60
2019-04-14T09:32:44.319Z,14.73
2019-04-14T09:35:17.650Z,13.73
2019-04-14T09:37:51.704Z,14.67
2019-04-14T09:40:23.194Z,14.80
2019-04-14T09:42:57.822Z,15.30
2019-04-14T09:45:31.206Z,13.80
2019-04-14T09:48:06.033Z,14.63
2019-04-14T09:50:41.380Z,14.00
2019-04-14T09:53:13.174Z,14.83
2019-04-14T09:55:46.779Z,14.20
2019-04-14T09:58:18.571Z,14.03
2019-04-14T10:00:50.617Z,15.07
2019-04-14T10:03:23.821Z,15.63
2019-04-14T10:05:57.825Z,15.57
2019-04-14T10:08:30.941Z,14.70
2019-04-14T10:11:04.915Z,14.50
2019-04-14T10:13:38.723Z,16.37
2019-04-14T10:16:11.764Z,14.73
2019-04-14T10:18:45.925Z,13.57
2019-04-14T10:21:18.630Z,14.20
2019-04-14T10:23:52.783Z,14.20
2019-04-14T10:26:25.929Z,15.47
2019-04-14T10:28:57.833Z,15.07
2019-04-14T10:31:30.893Z,15.77
2019-04-14T10:34:05.058Z,15.33
2019-04-14T10:36:39.666Z,14.73
2019-04-14T10:39:11.961Z,15.60
2019-04-14T10:41:45.014Z,17.17
2019-04-14T10:44:16.201Z,15.60
2019-04-14T10:46:50.158Z,16.87
2019-04-14T10:49:23.720Z,15.10
2019-04-14T10:51:59.370Z,15.53
2019-04-14T10:54:31.207Z,16.03
2019-04-14T10:57:03.978Z,16.90
2019-04-14T10:59:37.401Z,16.50
2019-04-14T11:02:10.976Z,16.37
2019-04-14T11:04:45.970Z,16.10
2019-04-14T11:07:31.714Z,15.57
2019-04-14T11:10:03.011Z,17.80
2019-04-14T11:12:37.259Z,16.40
2019-04-14T11:15:11.602Z,20.30
2019-04-14T11:17:45.489Z,14.27
2019-04-14T11:20:18.307Z,15.20
2019-04-14T11:23:02.848Z,16.20
2019-04-14T11:25:25.421Z,16.87
2019-04-14T11:28:01.047Z,19.80
2019-04-14T11:30:33.912Z,16.03
2019-04-14T11:33:39.813Z,15.40
2019-04-14T11:36:21.320Z,14.47
2019-04-14T11:39:15.092Z,16.30
2019-04-14T11:41:46.335Z,17.40
2019-04-14T11:44:18.856Z,13.40
2019-04-14T11:46:51.452Z,16.50
2019-04-14T11:49:25.116Z,14.50
2019-04-14T11:51:58.299Z,14.30
2019-04-14T11:54:31.015Z,12.20
2019-04-14T11:57:02.953Z,16.67
2019-04-14T11:59:53.295Z,11.30
2019-04-14T12:02:40.189Z,9.10
2019-04-14T12:05:23.165Z,12.53
2019-04-14T12:08:11.388Z,9.70
2019-04-14T12:10:44.425Z,8.70
2019-04-14T12:13:18.594Z,9.73
2019-04-14T12:15:52.358Z,14.87
2019-04-14T12:18:26.554Z,20.27
2019-04-14T12:20:59.310Z,23.50
2019-04-14T12:23:33.395Z,17.67
2019-04-14T12:26:07.450Z,14.83
2019-04-14T12:28:40.496Z,15.43
2019-04-14T12:31:15.256Z,14.27
2019-04-14T12:33:47.824Z,32.70
2019-04-14T12:36:19.542Z,14.77
2019-04-14T12:38:53.294Z,13.40
2019-04-14T12:41:31.668Z,12.20
2019-04-14T12:44:29.737Z,16.67
2019-04-14T12:47:24.968Z,12.03
2019-04-14T12:49:58.153Z,12.73
2019-04-14T12:52:30.415Z,15.17
2019-04-14T12:55:01.654Z,12.87
2019-04-14T12:57:48.727Z,12.00
2019-04-14T13:00:35.709Z,13.67
2019-04-14T13:03:09.101Z,13.70
2019-04-14T13:05:42.611Z,11.97
2019-04-14T13:08:18.107Z,14.80
2019-04-14T13:10:49.578Z,13.10
2019-04-14T13:13:23.370Z,12.90
2019-04-14T13:15:56.965Z,14.43
2019-04-14T13:18:30.639Z,13.73
2019-04-14T13:21:04.081Z,16.10
2019-04-14T13:23:37.706Z,13.77
2019-04-14T13:26:11.749Z,13.90
2019-04-14T13:28:44.701Z,13.77
2019-04-14T13:31:18.786Z,15.40
2019-04-14T13:33:54.713Z,14.93
2019-04-14T13:36:25.945Z,14.53
2019-04-14T13:38:58.722Z,14.43
2019-04-14T13:41:34.426Z,14.63
2019-04-14T13:44:05.995Z,15.67
2019-04-14T13:46:39.939Z,13.63
2019-04-14T13:49:13.553Z,15.77
2019-04-14T13:51:46.838Z,16.37
2019-04-14T13:54:18.071Z,20.30
2019-04-14T13:56:52.880Z,16.70
2019-04-14T13:59:24.829Z,15.57
2019-04-14T14:02:01.874Z,20.00
2019-04-14T14:04:40.590Z,17.77
2019-04-14T14:07:13.545Z,22.00
2019-04-14T14:09:47.109Z,17.33
2019-04-14T14:12:43.902Z,17.00
2019-04-14T14:15:34.974Z,16.90
2019-04-14T14:18:28.965Z,20.40
2019-04-14T14:21:22.210Z,16.17
2019-04-14T14:24:09.728Z,17.27
2019-04-14T14:26:41.395Z,17.70
2019-04-14T14:29:13.911Z,18.57
2019-04-14T14:31:48.052Z,18.43
2019-04-14T14:34:19.365Z,18.57
2019-04-14T14:36:52.379Z,19.73
2019-04-14T14:39:25.101Z,17.07
2019-04-14T14:41:56.614Z,21.57
2019-04-14T14:44:36.311Z,22.03
2019-04-14T14:47:29.467Z,16.00
2019-04-14T14:50:14.280Z,18.43
2019-04-14T14:52:47.176Z,15.73
2019-04-14T14:55:18.904Z,32.53
2019-04-14T14:57:51.882Z,22.33
2019-04-14T15:00:43.671Z,18.43
2019-04-14T15:03:16.709Z,16.50
2019-04-14T15:05:49.317Z,19.93
2019-04-14T15:08:23.632Z,16.00
2019-04-14T15:10:57.325Z,20.60
2019-04-14T15:13:31.676Z,18.70
2019-04-14T15:16:05.913Z,17.97
2019-04-14T15:18:39.697Z,24.50
2019-04-14T15:21:11.273Z,19.87
2019-04-14T15:23:46.624Z,18.83
2019-04-14T15:26:18.148Z,15.80
2019-04-14T15:28:52.161Z,17.77
2019-04-14T15:31:23.398Z,21.50
2019-04-14T15:33:56.344Z,18.17
2019-04-14T15:36:29.305Z,18.23
2019-04-14T15:39:01.216Z,19.20
2019-04-14T15:41:34.271Z,17.37
2019-04-14T15:44:06.019Z,16.90
2019-04-14T15:46:38.598Z,15.60
2019-04-14T15:49:11.442Z,16.00
2019-04-14T15:51:42.662Z,20.00
2019-04-14T15:54:16.302Z,19.70
2019-04-14T15:57:14.620Z,19.50
2019-04-14T16:00:05.095Z,20.17
2019-04-14T16:02:43.888Z,21.77
2019-04-14T16:05:34.412Z,19.17
2019-04-14T16:08:12.466Z,19.20
2019-04-14T16:11:11.902Z,18.63
2019-04-14T16:13:55.934Z,18.50
2019-04-14T16:16:59.275Z,19.97
2019-04-14T16:19:43.929Z,21.33
2019-04-14T16:22:16.427Z,19.10
2019-04-14T16:24:48.074Z,19.90
2019-04-14T16:27:53.777Z,20.20
2019-04-14T16:30:46.623Z,22.17
2019-04-14T16:33:30.483Z,19.07
2019-04-14T16:36:02.247Z,20.10
2019-04-14T16:38:35.676Z,28.10
2019-04-14T16:41:09.623Z,22.70
2019-04-14T16:43:42.600Z,22.00
2019-04-14T16:46:13.875Z,29.07
2019-04-14T16:48:48.429Z,22.87
2019-04-14T16:51:25.276Z,23.77
2019-04-14T16:54:03.313Z,24.30
2019-04-14T16:56:48.554Z,20.60
2019-04-14T16:59:19.801Z,21.80
2019-04-14T17:01:53.914Z,24.10
2019-04-14T17:04:25.899Z,26.23
2019-04-14T17:06:58.047Z,24.37
2019-04-14T17:09:31.127Z,24.73
2019-04-14T17:12:03.076Z,24.50
2019-04-14T17:14:49.468Z,23.00
2019-04-14T17:18:00.594Z,25.80
2019-04-14T17:20:51.187Z,22.53
2019-04-14T17:23:41.996Z,31.70
2019-04-14T17:26:21.937Z,27.27
2019-04-14T17:29:01.354Z,28.10
2019-04-14T17:31:51.348Z,23.00
2019-04-14T17:34:31.786Z,27.57
2019-04-14T17:37:24.725Z,22.60
2019-04-14T17:40:08.719Z,24.10
2019-04-14T17:42:54.251Z,32.27
2019-04-14T17:45:38.470Z,28.90
2019-04-14T17:48:33.020Z,24.40
2019-04-14T17:51:09.902Z,24.40
2019-04-14T17:53:47.230Z,23.93
2019-04-14T17:56:37.137Z,29.67
2019-04-14T17:59:15.935Z,23.20
2019-04-14T18:01:59.280Z,22.07
2019-04-14T18:04:53.544Z,21.73
2019-04-14T18:07:41.409Z,20.43
2019-04-14T18:10:25.166Z,19.47
2019-04-14T18:13:32.306Z,20.17
2019-04-14T18:16:28.166Z,21.73
2019-04-14T18:19:20.491Z,22.20
2019-04-14T18:21:55.669Z,22.70
2019-04-14T18:24:41.714Z,21.67
2019-04-14T18:27:04.631Z,20.43
2019-04-14T18:29:59.901Z,19.57
2019-04-14T18:32:40.931Z,18.67
2019-04-14T18:35:22.757Z,17.30
2019-04-14T18:38:06.405Z,19.67
2019-04-14T18:40:57.135Z,18.17
2019-04-14T18:43:48.166Z,19.97
2019-04-14T18:46:27.987Z,16.80
2019-04-14T18:49:20.016Z,18.67
2019-04-14T18:52:17.653Z,19.00
2019-04-14T18:55:17.480Z,18.37
2019-04-14T18:58:07.125Z,18.00
2019-04-14T19:01:00.161Z,18.97
2019-04-14T19:03:33.318Z,19.30
2019-04-14T19:06:06.362Z,19.70
2019-04-14T19:08:37.968Z,21.40
2019-04-14T19:11:32.297Z,19.10
2019-04-14T19:14:05.987Z,20.53
2019-04-14T19:16:42.470Z,19.73
2019-04-14T19:19:16.495Z,19.00
2019-04-14T19:21:51.104Z,17.73
2019-04-14T19:24:25.810Z,21.03
2019-04-14T19:26:59.842Z,20.37
2019-04-14T19:29:31.744Z,22.90
2019-04-14T19:32:04.133Z,22.53
2019-04-14T19:34:39.054Z,24.70
2019-04-14T19:37:11.529Z,21.47
2019-04-14T19:39:44.385Z,22.30
2019-04-14T19:42:18.281Z,21.33
2019-04-14T19:44:51.279Z,21.80
2019-04-14T19:47:22.576Z,21.43
2019-04-14T19:49:56.454Z,21.77
2019-04-14T19:52:29.425Z,23.00
2019-04-14T19:55:05.535Z,24.53
2019-04-14T19:57:40.314Z,22.33
2019-04-14T20:00:13.585Z,23.90
2019-04-14T20:02:47.241Z,25.27
2019-04-14T20:05:19.753Z,25.30
2019-04-14T20:07:51.566Z,25.53
2019-04-14T20:10:25.776Z,26.67
2019-04-14T20:12:57.827Z,24.83
2019-04-14T20:15:34.767Z,24.43
2019-04-14T20:18:14.348Z,24.00
2019-04-14T20:21:09.698Z,24.70
2019-04-14T20:23:47.980Z,28.03
2019-04-14T20:26:47.511Z,28.97
2019-04-14T20:29:23.027Z,26.20
2019-04-14T20:32:03.712Z,28.03
2019-04-14T20:34:35.897Z,29.77
2019-04-14T20:37:09.654Z,27.63
2019-04-14T20:39:45.354Z,31.33
2019-04-14T20:42:17.956Z,31.83
2019-04-14T20:44:50.889Z,30.67
2019-04-14T20:47:25.415Z,32.60
2019-04-14T20:49:57.610Z,30.43
2019-04-14T20:52:32.501Z,31.93
2019-04-14T20:55:07.995Z,31.87
2019-04-14T20:57:42.590Z,31.13
2019-04-14T21:00:14.861Z,33.10
2019-04-14T21:03:06.844Z,35.93
2019-04-14T21:06:02.183Z,35.33
2019-04-14T21:08:54.069Z,34.63
2019-04-14T21:11:31.315Z,36.10
2019-04-14T21:14:19.826Z,36.90
2019-04-14T21:17:06.873Z,31.97
2019-04-14T21:20:05.028Z,33.53
2019-04-14T21:22:55.741Z,35.47
2019-04-14T21:25:45.597Z,35.50
2019-04-14T21:28:35.777Z,36.23
2019-04-14T21:31:17.804Z,36.17
2019-04-14T21:34:10.081Z,36.20
2019-04-14T21:37:17.471Z,34.80
2019-04-14T21:40:19.434Z,36.40
2019-04-14T21:42:51.147Z,37.20
2019-04-14T21:45:26.245Z,38.67
2019-04-14T21:48:01.948Z,35.80
2019-04-14T21:50:33.236Z,34.97
2019-04-14T21:53:05.803Z,36.70
2019-04-14T21:55:39.050Z,34.73
2019-04-14T21:58:41.508Z,34.57
2019-04-14T22:01:52.880Z,35.53
2019-04-14T22:04:53.934Z,35.93
2019-04-14T22:07:32.877Z,32.60
2019-04-14T22:10:43.971Z,33.20
2019-04-14T22:13:17.351Z,33.73
2019-04-14T22:15:51.787Z,36.20
2019-04-14T22:18:23.149Z,35.57
2019-04-14T22:20:55.228Z,36.03
2019-04-14T22:23:30.489Z,33.60
2019-04-14T22:26:05.108Z,33.10
2019-04-14T22:28:40.995Z,32.37
2019-04-14T22:31:14.935Z,36.97
2019-04-14T22:33:47.139Z,35.60
2019-04-14T22:36:19.308Z,38.80
2019-04-14T22:38:52.106Z,32.40
2019-04-14T22:41:28.053Z,33.27
2019-04-14T22:44:03.015Z,31.17
2019-04-14T22:46:35.723Z,30.30
2019-04-14T22:49:08.254Z,30.83
2019-04-14T22:51:42.333Z,29.87
2019-04-14T22:54:15.450Z,32.83
2019-04-14T22:56:48.474Z,31.07
2019-04-14T22:59:20.010Z,31.57
2019-04-14T23:02:00.098Z,33.90
2019-04-14T23:04:52.684Z,30.97
2019-04-14T23:07:48.403Z,33.03
2019-04-14T23:10:29.727Z,35.00
2019-04-14T23:13:15.849Z,32.60
2019-04-14T23:16:04.911Z,33.20
2019-04-14T23:18:46.200Z,33.17
2019-04-14T23:21:34.950Z,29.73
2019-04-14T23:24:20.086Z,32.73
2019-04-14T23:26:53.930Z,35.23
2019-04-14T23:29:27.883Z,35.90
2019-04-14T23:32:00.662Z,36.30
2019-04-14T23:34:32.598Z,35.50
2019-04-14T23:37:05.059Z,37.90
2019-04-14T23:39:38.898Z,35.37
2019-04-14T23:42:13.774Z,36.10
2019-04-14T23:44:47.618Z,35.03
2019-04-14T23:47:19.475Z,35.00
2019-04-14T23:49:52.961Z,33.77
2019-04-14T23:52:25.659Z,35.40
2019-04-14T23:54:59.042Z,37.47
2019-04-14T23:57:32.782Z,36.60
